sensor_id;sensor_type;location;lat;lon;timestamp;pressure;altitude;pressure_sealevel;temperature;humidity
59053;BME280;44843;44.728;10.396;2023-11-22T00:00:08;100073.88;;;10.98;100.00
59053;BME280;44843;44.728;10.396;2023-11-22T00:02:35;100067.56;;;10.87;100.00
59053;BME280;44843;44.728;10.396;2023-11-22T00:05:01;100065.78;;;10.88;100.00
59053;BME280;44843;44.728;10.396;2023-11-22T00:07:26;100065.25;;;10.83;100.00
59053;BME280;44843;44.728;10.396;2023-11-22T00:09:54;100068.72;;;10.69;100.00
59053;BME280;44843;44.728;10.396;2023-11-22T00:12:20;100065.94;;;10.72;100.00
59053;BME280;44843;44.728;10.396;2023-11-22T00:14:45;100063.72;;;10.66;100.00
59053;BME280;44843;44.728;10.396;2023-11-22T00:17:12;100062.59;;;10.70;100.00
59053;BME280;44843;44.728;10.396;2023-11-22T00:19:37;100057.97;;;10.61;100.00
59053;BME280;44843;44.728;10.396;2023-11-22T00:22:03;100066.78;;;10.45;100.00
59053;BME280;44843;44.728;10.396;2023-11-22T00:24:37;100063.88;;;10.50;100.00
59053;BME280;44843;44.728;10.396;2023-11-22T00:27:02;100062.19;;;10.49;100.00
59053;BME280;44843;44.728;10.396;2023-11-22T00:29:27;100063.31;;;10.45;100.00
59053;BME280;44843;44.728;10.396;2023-11-22T00:31:53;100055.88;;;10.39;100.00
59053;BME280;44843;44.728;10.396;2023-11-22T00:34:18;100066.94;;;10.28;100.00
59053;BME280;44843;44.728;10.396;2023-11-22T00:36:43;100073.41;;;10.08;100.00
59053;BME280;44843;44.728;10.396;2023-11-22T00:39:09;100074.03;;;10.26;100.00
59053;BME280;44843;44.728;10.396;2023-11-22T00:41:38;100072.06;;;10.29;100.00
59053;BME280;44843;44.728;10.396;2023-11-22T00:44:04;100069.19;;;10.34;100.00
59053;BME280;44843;44.728;10.396;2023-11-22T00:46:31;100071.06;;;10.32;100.00
59053;BME280;44843;44.728;10.396;2023-11-22T00:48:56;100070.47;;;10.27;100.00
59053;BME280;44843;44.728;10.396;2023-11-22T00:51:22;100075.97;;;10.22;100.00
59053;BME280;44843;44.728;10.396;2023-11-22T00:53:47;100073.66;;;10.18;100.00
59053;BME280;44843;44.728;10.396;2023-11-22T00:56:13;100091.78;;;10.05;100.00
59053;BME280;44843;44.728;10.396;2023-11-22T00:58:38;100096.19;;;10.04;100.00
59053;BME280;44843;44.728;10.396;2023-11-22T01:01:04;100086.97;;;10.13;100.00
59053;BME280;44843;44.728;10.396;2023-11-22T01:03:30;100087.78;;;10.14;100.00
59053;BME280;44843;44.728;10.396;2023-11-22T01:05:55;100095.69;;;10.26;100.00
59053;BME280;44843;44.728;10.396;2023-11-22T01:08:21;100092.25;;;10.26;100.00
59053;BME280;44843;44.728;10.396;2023-11-22T01:10:47;100091.69;;;10.21;100.00
59053;BME280;44843;44.728;10.396;2023-11-22T01:13:12;100092.94;;;10.29;100.00
59053;BME280;44843;44.728;10.396;2023-11-22T01:15:40;100094.88;;;10.26;100.00
59053;BME280;44843;44.728;10.396;2023-11-22T01:18:06;100083.53;;;10.41;100.00
59053;BME280;44843;44.728;10.396;2023-11-22T01:20:32;100081.38;;;10.48;100.00
59053;BME280;44843;44.728;10.396;2023-11-22T01:22:57;100075.34;;;10.47;100.00
59053;BME280;44843;44.728;10.396;2023-11-22T01:25:22;100083.38;;;10.30;100.00
59053;BME280;44843;44.728;10.396;2023-11-22T01:27:48;100078.50;;;10.38;100.00
59053;BME280;44843;44.728;10.396;2023-11-22T01:30:13;100083.50;;;10.27;100.00
59053;BME280;44843;44.728;10.396;2023-11-22T01:32:40;100078.28;;;10.27;100.00
59053;BME280;44843;44.728;10.396;2023-11-22T01:35:05;100091.50;;;10.09;100.00
59053;BME280;44843;44.728;10.396;2023-11-22T01:37:31;100095.81;;;10.10;100.00
59053;BME280;44843;44.728;10.396;2023-11-22T01:39:57;100092.19;;;10.13;100.00
59053;BME280;44843;44.728;10.396;2023-11-22T01:42:23;100089.03;;;10.08;100.00
59053;BME280;44843;44.728;10.396;2023-11-22T01:44:50;100090.69;;;10.09;100.00
59053;BME280;44843;44.728;10.396;2023-11-22T01:47:17;100081.66;;;10.15;100.00
59053;BME280;44843;44.728;10.396;2023-11-22T01:49:42;100084.06;;;10.18;100.00
59053;BME280;44843;44.728;10.396;2023-11-22T01:52:08;100081.22;;;10.08;100.00
59053;BME280;44843;44.728;10.396;2023-11-22T01:54:34;100080.53;;;10.19;100.00
59053;BME280;44843;44.728;10.396;2023-11-22T01:57:00;100065.28;;;10.13;100.00
59053;BME280;44843;44.728;10.396;2023-11-22T01:59:27;100089.38;;;10.02;100.00
59053;BME280;44843;44.728;10.396;2023-11-22T02:01:54;100076.53;;;10.13;100.00
59053;BME280;44843;44.728;10.396;2023-11-22T02:04:20;100085.66;;;10.20;100.00
59053;BME280;44843;44.728;10.396;2023-11-22T02:06:46;100082.97;;;10.22;100.00
59053;BME280;44843;44.728;10.396;2023-11-22T02:09:12;100079.91;;;10.15;100.00
59053;BME280;44843;44.728;10.396;2023-11-22T02:11:41;100078.88;;;10.18;100.00
59053;BME280;44843;44.728;10.396;2023-11-22T02:14:07;100074.59;;;10.17;100.00
59053;BME280;44843;44.728;10.396;2023-11-22T02:16:34;100070.22;;;10.17;100.00
59053;BME280;44843;44.728;10.396;2023-11-22T02:19:00;100082.94;;;10.07;100.00
59053;BME280;44843;44.728;10.396;2023-11-22T02:21:25;100071.91;;;10.04;100.00
59053;BME280;44843;44.728;10.396;2023-11-22T02:23:51;100071.03;;;10.03;100.00
59053;BME280;44843;44.728;10.396;2023-11-22T02:26:16;100079.88;;;10.01;100.00
59053;BME280;44843;44.728;10.396;2023-11-22T02:28:43;100082.03;;;9.94;100.00
59053;BME280;44843;44.728;10.396;2023-11-22T02:31:09;100074.28;;;9.93;100.00
59053;BME280;44843;44.728;10.396;2023-11-22T02:33:34;100079.41;;;9.94;100.00
59053;BME280;44843;44.728;10.396;2023-11-22T02:36:01;100067.53;;;10.04;100.00
59053;BME280;44843;44.728;10.396;2023-11-22T02:38:28;100069.84;;;10.09;100.00
59053;BME280;44843;44.728;10.396;2023-11-22T02:40:53;100072.72;;;10.04;100.00
59053;BME280;44843;44.728;10.396;2023-11-22T02:43:19;100074.97;;;9.96;100.00
59053;BME280;44843;44.728;10.396;2023-11-22T02:45:44;100069.00;;;9.94;100.00
59053;BME280;44843;44.728;10.396;2023-11-22T02:48:10;100070.31;;;9.87;100.00
59053;BME280;44843;44.728;10.396;2023-11-22T02:50:36;100070.13;;;9.90;100.00
59053;BME280;44843;44.728;10.396;2023-11-22T02:53:04;100080.25;;;9.95;100.00
59053;BME280;44843;44.728;10.396;2023-11-22T02:55:30;100072.34;;;9.96;100.00
59053;BME280;44843;44.728;10.396;2023-11-22T02:57:55;100074.22;;;9.80;100.00
59053;BME280;44843;44.728;10.396;2023-11-22T03:00:20;100072.53;;;9.79;100.00
59053;BME280;44843;44.728;10.396;2023-11-22T03:02:46;100065.19;;;9.71;100.00
59053;BME280;44843;44.728;10.396;2023-11-22T03:05:13;100069.66;;;9.69;100.00
59053;BME280;44843;44.728;10.396;2023-11-22T03:07:43;100071.22;;;9.72;100.00
59053;BME280;44843;44.728;10.396;2023-11-22T03:10:08;100069.34;;;9.59;100.00
59053;BME280;44843;44.728;10.396;2023-11-22T03:12:35;100073.72;;;9.59;100.00
59053;BME280;44843;44.728;10.396;2023-11-22T03:15:00;100077.47;;;9.69;100.00
59053;BME280;44843;44.728;10.396;2023-11-22T03:17:28;100069.53;;;9.70;100.00
59053;BME280;44843;44.728;10.396;2023-11-22T03:19:56;100066.94;;;9.70;100.00
59053;BME280;44843;44.728;10.396;2023-11-22T03:22:23;100073.91;;;9.70;100.00
59053;BME280;44843;44.728;10.396;2023-11-22T03:24:49;100071.22;;;9.72;100.00
59053;BME280;44843;44.728;10.396;2023-11-22T03:27:14;100075.78;;;9.68;100.00
59053;BME280;44843;44.728;10.396;2023-11-22T03:29:40;100077.34;;;9.70;100.00
59053;BME280;44843;44.728;10.396;2023-11-22T03:32:06;100083.97;;;9.76;100.00
59053;BME280;44843;44.728;10.396;2023-11-22T03:34:31;100094.56;;;9.87;100.00
59053;BME280;44843;44.728;10.396;2023-11-22T03:36:57;100088.81;;;9.82;100.00
59053;BME280;44843;44.728;10.396;2023-11-22T03:39:22;100086.56;;;9.76;100.00
59053;BME280;44843;44.728;10.396;2023-11-22T03:41:48;100088.44;;;9.74;100.00
59053;BME280;44843;44.728;10.396;2023-11-22T03:44:13;100087.59;;;9.74;100.00
59053;BME280;44843;44.728;10.396;2023-11-22T03:46:39;100089.63;;;9.68;100.00
59053;BME280;44843;44.728;10.396;2023-11-22T03:49:05;100091.50;;;9.81;100.00
59053;BME280;44843;44.728;10.396;2023-11-22T03:51:35;100086.50;;;9.92;100.00
59053;BME280;44843;44.728;10.396;2023-11-22T03:54:01;100084.53;;;9.96;100.00
59053;BME280;44843;44.728;10.396;2023-11-22T03:56:27;100091.06;;;10.03;100.00
59053;BME280;44843;44.728;10.396;2023-11-22T03:58:53;100081.66;;;10.00;100.00
59053;BME280;44843;44.728;10.396;2023-11-22T04:01:18;100090.59;;;9.96;100.00
59053;BME280;44843;44.728;10.396;2023-11-22T04:03:46;100092.81;;;9.88;100.00
59053;BME280;44843;44.728;10.396;2023-11-22T04:06:11;100099.78;;;9.87;100.00
59053;BME280;44843;44.728;10.396;2023-11-22T04:08:36;100095.97;;;9.79;100.00
59053;BME280;44843;44.728;10.396;2023-11-22T04:11:03;100091.69;;;9.78;100.00
59053;BME280;44843;44.728;10.396;2023-11-22T04:13:30;100093.91;;;9.69;100.00
59053;BME280;44843;44.728;10.396;2023-11-22T04:15:56;100095.97;;;9.64;100.00
59053;BME280;44843;44.728;10.396;2023-11-22T04:18:21;100095.97;;;9.64;100.00
59053;BME280;44843;44.728;10.396;2023-11-22T04:20:46;100099.34;;;9.51;100.00
59053;BME280;44843;44.728;10.396;2023-11-22T04:23:13;100085.22;;;9.40;100.00
59053;BME280;44843;44.728;10.396;2023-11-22T04:25:41;100095.66;;;9.55;100.00
59053;BME280;44843;44.728;10.396;2023-11-22T04:28:07;100085.25;;;9.55;100.00
59053;BME280;44843;44.728;10.396;2023-11-22T04:30:34;100095.16;;;9.48;100.00
59053;BME280;44843;44.728;10.396;2023-11-22T04:32:59;100093.84;;;9.41;100.00
59053;BME280;44843;44.728;10.396;2023-11-22T04:35:25;100106.88;;;9.41;100.00
59053;BME280;44843;44.728;10.396;2023-11-22T04:37:50;100107.44;;;9.46;100.00
59053;BME280;44843;44.728;10.396;2023-11-22T04:40:15;100099.69;;;9.44;100.00
59053;BME280;44843;44.728;10.396;2023-11-22T04:42:41;100108.38;;;9.45;100.00
59053;BME280;44843;44.728;10.396;2023-11-22T04:45:07;100105.03;;;9.43;100.00
59053;BME280;44843;44.728;10.396;2023-11-22T04:47:33;100109.81;;;9.35;100.00
59053;BME280;44843;44.728;10.396;2023-11-22T04:49:58;100109.91;;;9.33;100.00
59053;BME280;44843;44.728;10.396;2023-11-22T04:52:24;100113.38;;;9.34;100.00
59053;BME280;44843;44.728;10.396;2023-11-22T04:54:49;100123.25;;;9.27;100.00
59053;BME280;44843;44.728;10.396;2023-11-22T04:57:14;100129.97;;;9.31;100.00
59053;BME280;44843;44.728;10.396;2023-11-22T04:59:40;100125.25;;;9.38;100.00
59053;BME280;44843;44.728;10.396;2023-11-22T05:02:06;100139.19;;;9.37;100.00
59053;BME280;44843;44.728;10.396;2023-11-22T05:04:32;100140.03;;;9.37;100.00
59053;BME280;44843;44.728;10.396;2023-11-22T05:06:58;100148.59;;;9.39;100.00
59053;BME280;44843;44.728;10.396;2023-11-22T05:09:23;100142.03;;;9.48;100.00
59053;BME280;44843;44.728;10.396;2023-11-22T05:11:49;100141.88;;;9.51;100.00
59053;BME280;44843;44.728;10.396;2023-11-22T05:14:14;100136.81;;;9.48;100.00
59053;BME280;44843;44.728;10.396;2023-11-22T05:16:40;100141.00;;;9.51;100.00
59053;BME280;44843;44.728;10.396;2023-11-22T05:19:05;100137.00;;;9.45;100.00
59053;BME280;44843;44.728;10.396;2023-11-22T05:21:31;100147.22;;;9.48;100.00
59053;BME280;44843;44.728;10.396;2023-11-22T05:23:57;100141.88;;;9.51;100.00
59053;BME280;44843;44.728;10.396;2023-11-22T05:26:23;100147.91;;;9.36;100.00
59053;BME280;44843;44.728;10.396;2023-11-22T05:28:48;100154.66;;;9.24;100.00
59053;BME280;44843;44.728;10.396;2023-11-22T05:31:14;100151.03;;;9.26;100.00
59053;BME280;44843;44.728;10.396;2023-11-22T05:33:39;100150.13;;;9.27;100.00
59053;BME280;44843;44.728;10.396;2023-11-22T05:36:06;100145.94;;;9.25;100.00
59053;BME280;44843;44.728;10.396;2023-11-22T05:38:31;100155.88;;;9.18;100.00
59053;BME280;44843;44.728;10.396;2023-11-22T05:40:59;100161.06;;;9.18;100.00
59053;BME280;44843;44.728;10.396;2023-11-22T05:43:25;100161.22;;;9.15;100.00
59053;BME280;44843;44.728;10.396;2023-11-22T05:45:55;100177.66;;;9.16;100.00
59053;BME280;44843;44.728;10.396;2023-11-22T05:48:20;100181.53;;;9.08;100.00
59053;BME280;44843;44.728;10.396;2023-11-22T05:50:48;100180.53;;;9.11;100.00
59053;BME280;44843;44.728;10.396;2023-11-22T05:53:14;100173.06;;;9.05;100.00
59053;BME280;44843;44.728;10.396;2023-11-22T05:55:49;100173.91;;;9.05;100.00
59053;BME280;44843;44.728;10.396;2023-11-22T05:58:15;100169.94;;;8.98;100.00
59053;BME280;44843;44.728;10.396;2023-11-22T06:00:46;100164.16;;;9.09;100.00
59053;BME280;44843;44.728;10.396;2023-11-22T06:03:12;100166.13;;;9.05;100.00
59053;BME280;44843;44.728;10.396;2023-11-22T06:05:39;100174.81;;;9.04;100.00
59053;BME280;44843;44.728;10.396;2023-11-22T06:08:04;100178.69;;;8.97;100.00
59053;BME280;44843;44.728;10.396;2023-11-22T06:10:30;100181.09;;;9.00;100.00
59053;BME280;44843;44.728;10.396;2023-11-22T06:12:55;100186.00;;;8.91;100.00
59053;BME280;44843;44.728;10.396;2023-11-22T06:15:21;100192.59;;;8.96;100.00
59053;BME280;44843;44.728;10.396;2023-11-22T06:17:47;100192.94;;;9.06;100.00
59053;BME280;44843;44.728;10.396;2023-11-22T06:20:15;100201.66;;;9.05;100.00
59053;BME280;44843;44.728;10.396;2023-11-22T06:22:40;100197.97;;;9.09;100.00
59053;BME280;44843;44.728;10.396;2023-11-22T06:25:13;100201.50;;;9.08;100.00
59053;BME280;44843;44.728;10.396;2023-11-22T06:27:39;100203.34;;;9.06;100.00
59053;BME280;44843;44.728;10.396;2023-11-22T06:30:05;100203.66;;;9.16;100.00
59053;BME280;44843;44.728;10.396;2023-11-22T06:32:32;100203.53;;;9.19;100.00
59053;BME280;44843;44.728;10.396;2023-11-22T06:34:57;100213.81;;;9.20;100.00
59053;BME280;44843;44.728;10.396;2023-11-22T06:37:23;100213.59;;;9.25;100.00
59053;BME280;44843;44.728;10.396;2023-11-22T06:39:48;100206.78;;;9.22;100.00
59053;BME280;44843;44.728;10.396;2023-11-22T06:42:14;100218.81;;;9.25;100.00
59053;BME280;44843;44.728;10.396;2023-11-22T06:44:39;100219.53;;;9.27;100.00
59053;BME280;44843;44.728;10.396;2023-11-22T06:47:07;100221.16;;;9.30;100.00
59053;BME280;44843;44.728;10.396;2023-11-22T06:49:33;100228.34;;;9.24;100.00
59053;BME280;44843;44.728;10.396;2023-11-22T06:51:59;100240.44;;;9.25;100.00
59053;BME280;44843;44.728;10.396;2023-11-22T06:54:24;100252.53;;;9.26;100.00
59053;BME280;44843;44.728;10.396;2023-11-22T06:56:50;100248.06;;;9.28;100.00
59053;BME280;44843;44.728;10.396;2023-11-22T06:59:16;100258.56;;;9.27;100.00
59053;BME280;44843;44.728;10.396;2023-11-22T07:01:42;100256.47;;;9.18;100.00
59053;BME280;44843;44.728;10.396;2023-11-22T07:04:07;100265.63;;;9.25;100.00
59053;BME280;44843;44.728;10.396;2023-11-22T07:06:33;100267.47;;;9.23;100.00
59053;BME280;44843;44.728;10.396;2023-11-22T07:08:58;100268.56;;;9.35;100.00
59053;BME280;44843;44.728;10.396;2023-11-22T07:11:24;100275.09;;;9.42;100.00
59053;BME280;44843;44.728;10.396;2023-11-22T07:13:51;100289.97;;;9.24;100.00
59053;BME280;44843;44.728;10.396;2023-11-22T07:16:17;100294.66;;;9.17;100.00
59053;BME280;44843;44.728;10.396;2023-11-22T07:18:44;100295.34;;;9.37;100.00
59053;BME280;44843;44.728;10.396;2023-11-22T07:21:10;100300.63;;;9.51;100.00
59053;BME280;44843;44.728;10.396;2023-11-22T07:23:36;100296.59;;;9.61;100.00
59053;BME280;44843;44.728;10.396;2023-11-22T07:26:03;100302.28;;;9.68;100.00
59053;BME280;44843;44.728;10.396;2023-11-22T07:28:28;100306.91;;;9.79;100.00
59053;BME280;44843;44.728;10.396;2023-11-22T07:30:54;100307.72;;;9.79;100.00
59053;BME280;44843;44.728;10.396;2023-11-22T07:33:19;100322.38;;;9.82;100.00
59053;BME280;44843;44.728;10.396;2023-11-22T07:35:46;100326.63;;;9.83;100.00
59053;BME280;44843;44.728;10.396;2023-11-22T07:38:11;100322.09;;;9.70;100.00
59053;BME280;44843;44.728;10.396;2023-11-22T07:40:37;100331.28;;;9.78;100.00
59053;BME280;44843;44.728;10.396;2023-11-22T07:43:02;100340.34;;;9.86;100.00
59053;BME280;44843;44.728;10.396;2023-11-22T07:45:30;100336.44;;;9.94;100.00
59053;BME280;44843;44.728;10.396;2023-11-22T07:47:57;100348.66;;;9.93;100.00
59053;BME280;44843;44.728;10.396;2023-11-22T07:50:25;100351.91;;;9.97;100.00
59053;BME280;44843;44.728;10.396;2023-11-22T07:52:50;100357.31;;;10.24;100.00
59053;BME280;44843;44.728;10.396;2023-11-22T07:55:16;100364.94;;;10.27;100.00
59053;BME280;44843;44.728;10.396;2023-11-22T07:57:43;100359.06;;;10.39;100.00
59053;BME280;44843;44.728;10.396;2023-11-22T08:00:09;100364.69;;;10.47;100.00
59053;BME280;44843;44.728;10.396;2023-11-22T08:02:36;100369.72;;;10.50;100.00
59053;BME280;44843;44.728;10.396;2023-11-22T08:05:05;100354.47;;;10.59;100.00
59053;BME280;44843;44.728;10.396;2023-11-22T08:07:37;100367.78;;;10.54;100.00
59053;BME280;44843;44.728;10.396;2023-11-22T08:10:07;100369.31;;;10.42;100.00
59053;BME280;44843;44.728;10.396;2023-11-22T08:12:37;100378.06;;;10.41;100.00
59053;BME280;44843;44.728;10.396;2023-11-22T08:15:03;100377.19;;;10.57;100.00
59053;BME280;44843;44.728;10.396;2023-11-22T08:17:29;100380.53;;;10.59;100.00
59053;BME280;44843;44.728;10.396;2023-11-22T08:19:57;100389.50;;;10.69;100.00
59053;BME280;44843;44.728;10.396;2023-11-22T08:22:22;100382.81;;;10.79;100.00
59053;BME280;44843;44.728;10.396;2023-11-22T08:24:48;100379.44;;;10.77;100.00
59053;BME280;44843;44.728;10.396;2023-11-22T08:27:13;100377.91;;;10.89;100.00
59053;BME280;44843;44.728;10.396;2023-11-22T08:29:41;100384.50;;;10.95;100.00
59053;BME280;44843;44.728;10.396;2023-11-22T08:32:06;100382.66;;;10.97;100.00
59053;BME280;44843;44.728;10.396;2023-11-22T08:36:57;100394.09;;;11.08;100.00
59053;BME280;44843;44.728;10.396;2023-11-22T08:39:24;100400.19;;;11.09;100.00
59053;BME280;44843;44.728;10.396;2023-11-22T08:41:49;100395.53;;;11.14;100.00
59053;BME280;44843;44.728;10.396;2023-11-22T08:44:15;100397.94;;;11.17;100.00
59053;BME280;44843;44.728;10.396;2023-11-22T08:46:41;100399.44;;;11.21;100.00
59053;BME280;44843;44.728;10.396;2023-11-22T08:49:06;100393.38;;;11.21;100.00
59053;BME280;44843;44.728;10.396;2023-11-22T08:51:32;100405.22;;;11.26;100.00
59053;BME280;44843;44.728;10.396;2023-11-22T08:53:59;100402.34;;;11.31;100.00
59053;BME280;44843;44.728;10.396;2023-11-22T08:56:24;100414.28;;;11.35;100.00
59053;BME280;44843;44.728;10.396;2023-11-22T08:58:49;100416.97;;;11.33;100.00
59053;BME280;44843;44.728;10.396;2023-11-22T09:01:15;100430.22;;;11.30;100.00
59053;BME280;44843;44.728;10.396;2023-11-22T09:03:40;100426.22;;;11.39;100.00
59053;BME280;44843;44.728;10.396;2023-11-22T09:06:06;100438.13;;;11.43;100.00
59053;BME280;44843;44.728;10.396;2023-11-22T09:08:32;100440.94;;;11.40;100.00
59053;BME280;44843;44.728;10.396;2023-11-22T09:10:57;100441.03;;;11.53;100.00
59053;BME280;44843;44.728;10.396;2023-11-22T09:13:23;100436.91;;;11.63;100.00
59053;BME280;44843;44.728;10.396;2023-11-22T09:15:50;100441.00;;;11.67;100.00
59053;BME280;44843;44.728;10.396;2023-11-22T09:18:15;100441.38;;;11.75;100.00
59053;BME280;44843;44.728;10.396;2023-11-22T09:20:44;100445.88;;;11.59;100.00
59053;BME280;44843;44.728;10.396;2023-11-22T09:23:09;100455.38;;;11.60;100.00
59053;BME280;44843;44.728;10.396;2023-11-22T09:25:35;100451.94;;;11.60;100.00
59053;BME280;44843;44.728;10.396;2023-11-22T09:28:01;100448.66;;;11.70;100.00
59053;BME280;44843;44.728;10.396;2023-11-22T09:30:28;100449.88;;;11.65;100.00
59053;BME280;44843;44.728;10.396;2023-11-22T09:33:10;100446.22;;;11.67;100.00
59053;BME280;44843;44.728;10.396;2023-11-22T09:35:36;100449.97;;;11.63;100.00
59053;BME280;44843;44.728;10.396;2023-11-22T09:38:04;100452.84;;;11.73;100.00
59053;BME280;44843;44.728;10.396;2023-11-22T09:40:31;100459.47;;;11.79;100.00
59053;BME280;44843;44.728;10.396;2023-11-22T09:43:00;100455.66;;;11.70;100.00
59053;BME280;44843;44.728;10.396;2023-11-22T09:45:27;100454.72;;;11.71;100.00
59053;BME280;44843;44.728;10.396;2023-11-22T09:47:54;100452.00;;;11.72;100.00
59053;BME280;44843;44.728;10.396;2023-11-22T09:50:26;100457.63;;;11.66;100.00
59053;BME280;44843;44.728;10.396;2023-11-22T09:52:55;100459.09;;;11.70;100.00
59053;BME280;44843;44.728;10.396;2023-11-22T09:55:28;100464.97;;;11.74;100.00
59053;BME280;44843;44.728;10.396;2023-11-22T09:57:54;100469.63;;;11.83;100.00
59053;BME280;44843;44.728;10.396;2023-11-22T10:00:22;100475.69;;;11.84;100.00
59053;BME280;44843;44.728;10.396;2023-11-22T10:02:50;100462.94;;;11.79;100.00
59053;BME280;44843;44.728;10.396;2023-11-22T10:05:15;100468.72;;;11.99;100.00
59053;BME280;44843;44.728;10.396;2023-11-22T10:07:41;100459.47;;;11.93;100.00
59053;BME280;44843;44.728;10.396;2023-11-22T10:10:07;100460.22;;;11.95;100.00
59053;BME280;44843;44.728;10.396;2023-11-22T10:12:33;100460.38;;;12.06;100.00
59053;BME280;44843;44.728;10.396;2023-11-22T10:15:12;100468.59;;;12.00;100.00
59053;BME280;44843;44.728;10.396;2023-11-22T10:17:37;100473.34;;;12.08;100.00
59053;BME280;44843;44.728;10.396;2023-11-22T10:20:03;100475.03;;;12.09;100.00
59053;BME280;44843;44.728;10.396;2023-11-22T10:22:29;100473.88;;;12.13;100.00
59053;BME280;44843;44.728;10.396;2023-11-22T10:24:58;100476.63;;;12.11;100.00
59053;BME280;44843;44.728;10.396;2023-11-22T10:27:26;100474.91;;;12.25;100.00
59053;BME280;44843;44.728;10.396;2023-11-22T10:29:51;100485.16;;;12.28;100.00
59053;BME280;44843;44.728;10.396;2023-11-22T10:32:17;100486.25;;;12.38;100.00
59053;BME280;44843;44.728;10.396;2023-11-22T10:34:42;100479.03;;;12.42;100.00
59053;BME280;44843;44.728;10.396;2023-11-22T10:37:08;100472.97;;;12.41;100.00
59053;BME280;44843;44.728;10.396;2023-11-22T10:39:35;100477.16;;;12.44;100.00
59053;BME280;44843;44.728;10.396;2023-11-22T10:42:02;100469.81;;;12.36;100.00
59053;BME280;44843;44.728;10.396;2023-11-22T10:44:31;100472.22;;;12.39;100.00
59053;BME280;44843;44.728;10.396;2023-11-22T10:46:59;100462.41;;;12.43;100.00
59053;BME280;44843;44.728;10.396;2023-11-22T10:49:25;100462.16;;;12.33;100.00
59053;BME280;44843;44.728;10.396;2023-11-22T10:51:52;100460.59;;;12.30;100.00
59053;BME280;44843;44.728;10.396;2023-11-22T10:54:18;100455.50;;;12.42;100.00
59053;BME280;44843;44.728;10.396;2023-11-22T10:56:51;100463.84;;;12.34;100.00
59053;BME280;44843;44.728;10.396;2023-11-22T10:59:19;100461.41;;;12.31;100.00
59053;BME280;44843;44.728;10.396;2023-11-22T11:01:48;100466.66;;;12.31;100.00
59053;BME280;44843;44.728;10.396;2023-11-22T11:04:27;100464.47;;;12.10;100.00
59053;BME280;44843;44.728;10.396;2023-11-22T11:06:55;100466.72;;;12.16;100.00
59053;BME280;44843;44.728;10.396;2023-11-22T11:09:22;100464.31;;;12.13;100.00
59053;BME280;44843;44.728;10.396;2023-11-22T11:11:50;100465.13;;;12.14;100.00
59053;BME280;44843;44.728;10.396;2023-11-22T11:14:15;100469.03;;;12.21;100.00
59053;BME280;44843;44.728;10.396;2023-11-22T11:16:43;100482.34;;;12.31;100.00
59053;BME280;44843;44.728;10.396;2023-11-22T11:19:15;100474.09;;;12.37;100.00
59053;BME280;44843;44.728;10.396;2023-11-22T11:21:43;100476.25;;;12.45;100.00
59053;BME280;44843;44.728;10.396;2023-11-22T11:24:08;100479.59;;;12.47;100.00
59053;BME280;44843;44.728;10.396;2023-11-22T11:26:34;100482.09;;;12.48;100.00
59053;BME280;44843;44.728;10.396;2023-11-22T11:29:02;100482.91;;;12.36;100.00
59053;BME280;44843;44.728;10.396;2023-11-22T11:31:33;100489.50;;;12.42;100.00
59053;BME280;44843;44.728;10.396;2023-11-22T11:34:07;100499.63;;;12.33;100.00
59053;BME280;44843;44.728;10.396;2023-11-22T11:36:33;100487.41;;;12.20;100.00
59053;BME280;44843;44.728;10.396;2023-11-22T11:39:05;100495.03;;;12.37;100.00
59053;BME280;44843;44.728;10.396;2023-11-22T11:41:34;100502.19;;;12.48;100.00
59053;BME280;44843;44.728;10.396;2023-11-22T11:44:03;100501.84;;;12.67;100.00
59053;BME280;44843;44.728;10.396;2023-11-22T11:46:30;100504.09;;;12.58;100.00
59053;BME280;44843;44.728;10.396;2023-11-22T11:48:56;100497.34;;;12.69;100.00
59053;BME280;44843;44.728;10.396;2023-11-22T11:51:26;100501.66;;;12.83;100.00
59053;BME280;44843;44.728;10.396;2023-11-22T11:53:52;100485.13;;;12.82;100.00
59053;BME280;44843;44.728;10.396;2023-11-22T11:56:19;100485.34;;;12.79;100.00
59053;BME280;44843;44.728;10.396;2023-11-22T11:58:46;100488.38;;;12.73;100.00
59053;BME280;44843;44.728;10.396;2023-11-22T12:01:15;100489.84;;;12.77;100.00
59053;BME280;44843;44.728;10.396;2023-11-22T12:03:42;100492.63;;;12.74;100.00
59053;BME280;44843;44.728;10.396;2023-11-22T12:06:07;100490.88;;;12.87;100.00
59053;BME280;44843;44.728;10.396;2023-11-22T12:08:33;100489.22;;;12.86;100.00
59053;BME280;44843;44.728;10.396;2023-11-22T12:11:02;100481.38;;;12.86;100.00
59053;BME280;44843;44.728;10.396;2023-11-22T12:13:29;100486.63;;;12.86;100.00
59053;BME280;44843;44.728;10.396;2023-11-22T12:15:55;100477.06;;;12.85;100.00
59053;BME280;44843;44.728;10.396;2023-11-22T12:18:22;100475.31;;;12.86;100.00
59053;BME280;44843;44.728;10.396;2023-11-22T12:20:55;100482.84;;;12.90;100.00
59053;BME280;44843;44.728;10.396;2023-11-22T12:23:22;100492.19;;;12.94;100.00
59053;BME280;44843;44.728;10.396;2023-11-22T12:25:48;100485.56;;;12.89;100.00
59053;BME280;44843;44.728;10.396;2023-11-22T12:28:16;100491.53;;;12.91;100.00
59053;BME280;44843;44.728;10.396;2023-11-22T12:30:43;100492.91;;;12.84;100.00